Flugplatz München (EDDM)

Hier findest Du alle Informationen zum Flugplatz München (EDDM).

Informationen für Piloten zum Flugplatz München

Hier findest Du alle relevanten Informationen, die Du als Pilot benötigst, um München anzufliegen.

Flugplatz: München ICAO-Code: EDDM
Frequenz Turm: 118,700 Mhz GAFOR Gebiet: 74
Frequenz Ground: 118,700 Mhz Mogas: nein
Platzrunde: - Landegebühr: -
Platzhöhe: - Sunrise: 06:45 Uhr UTC
Pisten: 08/26 - 4.000 m x 60 m, BIT Sunset: 15:21 Uhr UTC

Flugwetter am Flugplatz München

Die METAR Information stammen aus EDDM.

METAR Code:
2022/11/26 08:20
EDDM 260820Z AUTO 25006KT 9999 FEW009 BKN018 05/04 Q1030 TEMPO BKN009

Temperatur: 2,1 °C Niederschlag: - Wind: 8,0 kt
Temperatur (min.): 1,7 °C Luftdruck: 1019 hPa Windrichtung: 210 °
Temperatur (max.): 3,0 °C Luftfeuchtigkeit: 99 % Bewölkung: 2/8

Flugschulen am Flugplatz München

Am Flugplatz München gibt es leider keine Flugschule.

Benachbarte Flugplätze und Flugschulen

Es gibt 12 weitere Flugplätze in einem Umkreis von 50 km um den Flugplatz München.

Jetzt anmelden

Passwort vergessen

Umfrage Archiv

Sendet Ihr ADS-B und/oder FLARM?

Ja
84.6 %
Nein
15.4 %
Stimmen: 254 | Diskussion
Anzeige: Roland Aircraft
Statistik Alle Mitglieder

Aktuell sind 43 Besucher online, davon 1 Mitglied und 42 Gäste.


Mitglieder online:
Schubschrauber 

Anzeige: ULPower Aero Engines Anzeige: EasyVFR